Time;durP1;ratioP1;P1;durP2;ratioP2;P2;SDS_P1;SDS_P2;PMS_P1;PMS_P2;Temp;Humidity;BMP_temperature;BMP_pressure;BME280_temperature;BME280_humidity;BME280_pressure;Samples;Min_cycle;Max_cycle;Signal;HPM_P1;HPM_P2
2023/07/14 00:03:36;;;;;;;3.38;1.20;;;;;;;21.71;43.83;100369.88;10359676;28;20054;-66
2023/07/14 00:08:39;;;;;;;1.98;0.70;;;;;;;21.84;44.49;100390.84;10354573;28;20050;-64
2023/07/14 00:13:41;;;;;;;2.27;0.87;;;;;;;21.65;44.06;100367.94;10351460;28;20069;-64
2023/07/14 00:18:43;;;;;;;4.88;0.80;;;;;;;21.73;44.19;100376.97;10352664;28;20148;-64
2023/07/14 00:23:45;;;;;;;1.73;1.00;;;;;;;21.63;44.68;100367.31;10352068;28;20061;-64
2023/07/14 00:28:50;;;;;;;2.38;0.80;;;;;;;21.64;44.72;100379.78;10355465;28;20135;-64
2023/07/14 00:33:53;;;;;;;3.22;0.90;;;;;;;21.58;44.39;100352.66;10354391;28;20137;-65
2023/07/14 00:38:55;;;;;;;1.90;0.70;;;;;;;21.48;44.50;100356.50;10349504;28;20060;-64
2023/07/14 00:43:57;;;;;;;1.75;0.85;;;;;;;21.48;44.71;100364.63;10350592;28;20563;-64
2023/07/14 00:49:06;;;;;;;2.22;0.80;;;;;;;21.34;44.76;100355.50;10360331;28;20064;-65
2023/07/14 00:54:23;;;;;;;1.73;0.82;;;;;;;21.29;44.75;100351.72;10356312;28;20057;-65
2023/07/14 00:59:33;;;;;;;1.58;1.02;;;;;;;21.32;44.55;100365.69;10359773;28;20049;-64
2023/07/14 01:04:37;;;;;;;3.72;1.45;;;;;;;21.22;44.60;100356.19;10365188;28;20045;-64
2023/07/14 01:09:40;;;;;;;4.78;0.95;;;;;;;21.17;44.50;100346.78;10377640;28;20061;-64
2023/07/14 01:14:46;;;;;;;2.03;1.17;;;;;;;21.26;44.45;100365.59;10364663;28;20141;-64
2023/07/14 01:19:50;;;;;;;1.70;1.17;;;;;;;21.24;44.33;100362.25;10359059;28;20065;-63
2023/07/14 01:25:13;;;;;;;4.20;1.27;;;;;;;21.18;44.25;100358.44;10359070;28;20056;-64
2023/07/14 01:30:17;;;;;;;1.65;0.80;;;;;;;21.17;44.36;100351.38;10357774;28;20072;-64
2023/07/14 01:35:24;;;;;;;1.98;0.90;;;;;;;21.15;43.89;100354.25;10355237;28;20085;-64
2023/07/14 01:40:26;;;;;;;3.63;0.80;;;;;;;21.06;44.18;100349.13;10355804;28;20056;-63
2023/07/14 01:45:38;;;;;;;3.20;0.83;;;;;;;21.09;43.91;100359.59;10357911;28;20130;-64
2023/07/14 01:50:53;;;;;;;1.70;0.70;;;;;;;21.04;44.17;100349.31;10357253;28;20045;-64
2023/07/14 01:55:58;;;;;;;1.73;0.77;;;;;;;20.99;44.15;100349.06;10356656;28;20123;-63
2023/07/14 02:01:01;;;;;;;1.73;1.02;;;;;;;20.92;44.18;100331.91;10356830;28;20057;-64
2023/07/14 02:06:03;;;;;;;;;;;;;;;20.88;44.40;100334.13;10356537;28;20152;-63
2023/07/14 02:11:05;;;;;;;1.38;0.73;;;;;;;20.73;44.46;100330.63;10358328;28;19929;-64
2023/07/14 02:16:12;;;;;;;1.92;1.23;;;;;;;20.78;45.14;100342.56;10358353;28;20146;-64
2023/07/14 02:21:27;;;;;;;2.25;0.95;;;;;;;20.63;44.95;100333.59;10356105;28;20045;-64
2023/07/14 02:26:35;;;;;;;2.22;0.90;;;;;;;20.54;45.51;100337.44;10356595;28;20045;-67
2023/07/14 02:31:44;;;;;;;2.45;1.02;;;;;;;20.58;45.68;100341.41;10359823;28;20152;-65
2023/07/14 02:36:58;;;;;;;1.90;0.80;;;;;;;20.40;45.32;100314.75;10357494;28;20095;-64
2023/07/14 02:42:00;;;;;;;2.40;0.95;;;;;;;20.47;45.10;100321.09;10350145;28;20733;-66
2023/07/14 02:47:11;;;;;;;2.58;1.23;;;;;;;20.57;45.55;100337.06;10356712;28;20053;-64
2023/07/14 02:52:12;;;;;;;2.35;0.90;;;;;;;20.54;45.56;100332.03;10353334;28;20144;-65
2023/07/14 02:57:14;;;;;;;2.83;1.02;;;;;;;20.53;45.71;100335.75;10354506;28;20507;-70
2023/07/14 03:02:15;;;;;;;1.52;1.00;;;;;;;20.48;45.83;100326.31;10359703;28;20053;-63
2023/07/14 03:07:17;;;;;;;2.60;1.00;;;;;;;20.42;46.43;100320.84;10355345;28;20061;-66
2023/07/14 03:12:19;;;;;;;2.28;1.00;;;;;;;20.33;46.39;100306.56;10353617;28;20049;-63
2023/07/14 03:17:21;;;;;;;2.45;1.00;;;;;;;20.39;46.34;100324.75;10356852;28;20049;-63
2023/07/14 03:22:24;;;;;;;2.00;1.23;;;;;;;20.35;46.48;100320.72;10355610;28;20061;-64
2023/07/14 03:27:25;;;;;;;4.10;1.10;;;;;;;20.21;46.71;100299.94;10352501;28;20060;-64
2023/07/14 03:32:27;;;;;;;3.75;1.23;;;;;;;20.36;46.69;100317.00;10357035;28;20504;-64
2023/07/14 03:37:28;;;;;;;2.65;1.23;;;;;;;20.31;46.85;100303.19;10353021;28;20139;-64
2023/07/14 03:42:30;;;;;;;1.77;1.10;;;;;;;20.27;46.92;100299.19;10360492;28;20070;-65
2023/07/14 03:47:32;;;;;;;2.30;1.25;;;;;;;20.29;47.22;100318.75;10358234;28;20076;-65
2023/07/14 03:52:34;;;;;;;1.92;0.85;;;;;;;20.22;47.44;100317.81;10360484;28;20065;-64
2023/07/14 03:57:36;;;;;;;1.95;0.95;;;;;;;20.33;47.02;100317.38;10349945;28;20487;-64
2023/07/14 04:02:58;;;;;;;2.53;1.40;;;;;;;20.35;47.38;100330.72;10361467;28;20136;-62
2023/07/14 04:07:59;;;;;;;1.83;0.98;;;;;;;20.39;47.39;100319.34;10358498;28;20103;-62
2023/07/14 04:13:00;;;;;;;1.92;1.13;;;;;;;20.38;47.30;100308.72;10353519;28;20090;-65
2023/07/14 04:18:02;;;;;;;2.08;1.08;;;;;;;20.37;47.72;100307.88;10356232;28;20061;-64
2023/07/14 04:23:05;;;;;;;5.88;1.40;;;;;;;20.37;47.44;100310.59;10358507;28;20570;-62
2023/07/14 04:28:06;;;;;;;2.90;1.03;;;;;;;20.34;47.70;100308.22;10360175;28;20893;-63
2023/07/14 04:33:08;;;;;;;3.88;1.92;;;;;;;20.35;47.91;100304.50;10361441;28;20056;-63
2023/07/14 04:38:09;;;;;;;2.72;1.08;;;;;;;20.30;48.11;100305.06;10367736;28;20062;-63
2023/07/14 04:43:12;;;;;;;2.58;0.77;;;;;;;20.30;48.53;100312.34;10360791;28;20278;-64
2023/07/14 04:48:16;;;;;;;1.92;1.27;;;;;;;20.29;49.01;100297.16;10367256;28;20053;-62
2023/07/14 04:53:19;;;;;;;4.28;1.42;;;;;;;20.27;48.89;100301.91;10364725;28;20575;-65
2023/07/14 04:58:20;;;;;;;2.77;1.40;;;;;;;20.20;48.92;100287.44;10366427;28;20066;-65
2023/07/14 05:03:23;;;;;;;3.22;1.27;;;;;;;20.24;50.02;100299.56;10361555;28;20048;-65
2023/07/14 05:08:24;;;;;;;11.37;2.50;;;;;;;20.05;48.78;100265.81;10352978;28;20068;-65
2023/07/14 05:13:26;;;;;;;1.70;1.17;;;;;;;20.05;48.63;100293.66;10357025;28;20249;-67
2023/07/14 05:18:27;;;;;;;4.72;1.90;;;;;;;20.17;48.50;100295.94;10355684;28;20078;-69
2023/07/14 05:23:29;;;;;;;7.55;2.20;;;;;;;20.16;49.14;100284.25;10339358;28;20076;-67
2023/07/14 05:28:30;;;;;;;3.58;1.38;;;;;;;20.17;48.42;100285.94;10352396;28;20053;-67
2023/07/14 05:33:32;;;;;;;5.18;1.67;;;;;;;20.24;49.35;100296.88;10355203;28;20459;-64
2023/07/14 05:38:34;;;;;;;7.68;1.33;;;;;;;20.16;49.06;100294.25;10356977;28;20057;-64
2023/07/14 05:43:36;;;;;;;3.53;1.52;;;;;;;20.32;49.11;100304.88;10357984;28;20061;-64
2023/07/14 05:48:37;;;;;;;4.20;1.65;;;;;;;20.14;48.57;100270.94;10355407;28;20515;-64
2023/07/14 05:53:39;;;;;;;3.60;1.10;;;;;;;20.29;49.35;100289.03;10368815;28;20751;-64
2023/07/14 05:58:41;;;;;;;3.08;1.70;;;;;;;20.38;49.04;100287.91;10353062;28;20760;-63
2023/07/14 06:03:42;;;;;;;5.40;1.70;;;;;;;20.44;49.98;100289.03;10356870;28;20065;-63
2023/07/14 06:08:45;;;;;;;5.43;2.25;;;;;;;20.45;49.66;100283.44;10354542;28;20056;-65
2023/07/14 06:13:46;;;;;;;2.10;1.63;;;;;;;20.55;50.02;100290.41;10362514;28;20058;-63
2023/07/14 06:18:51;;;;;;;3.08;1.60;;;;;;;20.67;50.10;100278.13;10358336;28;20088;-66
2023/07/14 06:23:53;;;;;;;2.78;1.42;;;;;;;20.69;49.17;100267.97;10347874;28;20061;-66
2023/07/14 06:28:54;;;;;;;4.38;1.30;;;;;;;20.93;48.91;100277.59;10360681;28;20122;-65
2023/07/14 06:33:56;;;;;;;3.95;1.27;;;;;;;21.06;48.30;100268.78;10358208;28;20053;-64
2023/07/14 06:38:57;;;;;;;3.10;1.25;;;;;;;21.25;48.07;100272.72;10359112;28;20514;-62
2023/07/14 06:44:00;;;;;;;3.53;1.35;;;;;;;21.22;48.06;100256.06;10361095;28;20053;-65
2023/07/14 06:49:16;;;;;;;5.82;1.65;;;;;;;21.19;47.97;100252.69;10360024;28;20522;-63
2023/07/14 06:54:24;;;;;;;5.53;1.60;;;;;;;21.23;47.17;100268.53;10358680;28;20063;-62
2023/07/14 06:59:26;;;;;;;5.55;1.80;;;;;;;21.14;46.97;100255.16;10364188;28;20420;-65
2023/07/14 07:04:27;;;;;;;2.47;1.20;;;;;;;21.30;47.20;100253.19;10359102;28;20042;-65
2023/07/14 07:09:29;;;;;;;5.88;1.70;;;;;;;21.39;46.97;100234.97;10361693;28;20561;-63
2023/07/14 07:14:37;;;;;;;2.45;1.20;;;;;;;21.50;48.16;100248.84;10371181;28;20381;-57
2023/07/14 07:19:39;;;;;;;2.60;1.48;;;;;;;21.46;46.79;100244.81;10335322;28;20285;-58
2023/07/14 07:24:40;;;;;;;5.20;1.40;;;;;;;21.64;47.16;100251.66;10329860;28;20149;-57
2023/07/14 07:29:42;;;;;;;5.03;1.75;;;;;;;21.83;47.49;100247.44;10329658;28;20050;-56
2023/07/14 07:34:43;;;;;;;3.80;1.50;;;;;;;22.07;47.10;100238.00;10335587;28;20060;-57
2023/07/14 07:39:45;;;;;;;3.47;1.75;;;;;;;22.40;45.87;100237.38;10335570;28;20054;-58
2023/07/14 07:44:47;;;;;;;3.33;1.73;;;;;;;22.37;45.67;100238.59;10331557;28;20144;-58
2023/07/14 07:49:49;;;;;;;5.07;1.77;;;;;;;22.41;45.77;100233.59;10336009;28;20144;-58
2023/07/14 07:54:50;;;;;;;3.35;1.50;;;;;;;22.58;45.28;100215.94;10341428;28;20062;-57
2023/07/14 07:59:52;;;;;;;5.88;1.83;;;;;;;22.78;44.84;100228.75;10343001;28;21138;-58
2023/07/14 08:04:54;;;;;;;4.18;1.75;;;;;;;22.86;45.37;100217.69;10352025;28;20058;-58
2023/07/14 08:09:56;;;;;;;4.03;2.03;;;;;;;22.90;45.37;100199.94;10337228;28;20053;-57
2023/07/14 08:14:57;;;;;;;4.45;1.85;;;;;;;23.16;45.07;100195.63;10343078;28;20060;-58
2023/07/14 08:19:59;;;;;;;4.47;2.03;;;;;;;23.57;44.26;100202.75;10345598;28;20076;-57
2023/07/14 08:25:00;;;;;;;4.75;1.52;;;;;;;23.73;43.80;100208.78;10318624;28;20054;-57
2023/07/14 08:30:05;;;;;;;3.80;1.45;;;;;;;23.75;43.68;100206.69;10317334;28;20132;-58
2023/07/14 08:35:07;;;;;;;4.07;1.40;;;;;;;23.65;43.29;100185.38;10315483;28;20050;-58
2023/07/14 08:40:13;;;;;;;4.85;1.10;;;;;;;23.86;43.03;100192.50;10312792;28;20038;-58
2023/07/14 08:45:41;;;;;;;5.30;1.80;;;;;;;24.13;42.99;100198.69;10314321;28;20212;-57
2023/07/14 08:50:46;;;;;;;3.35;1.52;;;;;;;24.14;42.63;100189.50;10311675;28;20627;-56
2023/07/14 08:55:48;;;;;;;2.10;0.90;;;;;;;24.35;41.63;100182.91;10312723;28;20073;-59
2023/07/14 09:00:49;;;;;;;1.77;0.80;;;;;;;24.58;40.90;100184.28;10312578;28;20049;-57
2023/07/14 09:05:54;;;;;;;3.17;1.20;;;;;;;24.72;40.97;100193.22;10315109;28;20057;-59
2023/07/14 09:11:05;;;;;;;6.68;1.60;;;;;;;24.73;40.20;100185.91;10311500;28;20405;-57
2023/07/14 09:16:10;;;;;;;4.57;1.73;;;;;;;24.63;40.57;100187.19;10313334;28;20060;-58
2023/07/14 09:21:14;;;;;;;4.55;1.33;;;;;;;24.61;41.45;100180.31;10312138;28;20050;-57
2023/07/14 09:26:29;;;;;;;3.88;1.48;;;;;;;24.65;39.94;100185.09;10309785;28;20042;-57
2023/07/14 09:31:50;;;;;;;5.18;1.20;;;;;;;24.73;39.49;100180.47;10307868;28;20384;-58
2023/07/14 09:36:53;;;;;;;2.45;1.05;;;;;;;24.74;39.81;100171.22;10311613;28;20065;-58
2023/07/14 09:41:59;;;;;;;2.85;1.20;;;;;;;24.88;39.81;100154.59;10308321;28;20053;-57
2023/07/14 09:47:03;;;;;;;3.53;1.30;;;;;;;25.12;39.94;100149.38;10299978;28;20156;-57
2023/07/14 09:52:23;;;;;;;7.60;2.67;;;;;;;25.34;38.65;100132.66;10311745;28;20050;-58
2023/07/14 09:57:32;;;;;;;3.78;0.90;;;;;;;25.66;39.48;100130.69;10307571;28;20369;-59
2023/07/14 10:02:41;;;;;;;4.55;1.20;;;;;;;25.96;37.16;100121.75;10312904;28;20054;-58
2023/07/14 10:07:43;;;;;;;2.97;0.90;;;;;;;26.22;36.32;100133.41;10310053;28;20057;-58
2023/07/14 10:12:48;;;;;;;5.97;1.17;;;;;;;26.32;35.51;100120.06;10312169;28;20534;-58
2023/07/14 10:18:03;;;;;;;3.40;0.93;;;;;;;26.35;34.46;100121.50;10308628;28;20077;-58
2023/07/14 10:23:14;;;;;;;3.83;0.90;;;;;;;26.20;35.73;100119.19;10297832;28;20049;-57
2023/07/14 10:28:27;;;;;;;3.00;0.90;;;;;;;26.15;36.16;100116.28;10308109;28;20068;-57
2023/07/14 10:34:01;;;;;;;1.80;0.80;;;;;;;26.08;35.96;100105.47;10314002;28;20570;-56
2023/07/14 10:39:13;;;;;;;3.92;0.90;;;;;;;26.08;35.31;100098.13;10303885;28;20081;-57
2023/07/14 10:44:23;;;;;;;4.57;1.15;;;;;;;26.22;34.46;100095.22;10314281;28;20515;-58
2023/07/14 10:49:32;;;;;;;3.40;1.30;;;;;;;26.33;34.50;100091.69;10310461;28;20054;-58
2023/07/14 10:54:51;;;;;;;3.13;1.30;;;;;;;26.34;35.41;100082.44;10310394;28;20069;-58
2023/07/14 11:00:19;;;;;;;5.35;0.93;;;;;;;26.42;34.84;100081.28;10309649;28;20119;-58
2023/07/14 11:05:24;;;;;;;4.43;1.40;;;;;;;26.37;34.87;100084.72;10317713;28;20833;-58
2023/07/14 11:10:39;;;;;;;3.75;1.05;;;;;;;26.23;35.45;100077.81;10312721;28;20066;-57
2023/07/14 11:15:48;;;;;;;4.25;1.45;;;;;;;25.99;34.83;100077.69;10309747;28;20140;-57
2023/07/14 11:21:07;;;;;;;4.32;1.40;;;;;;;25.92;35.19;100064.09;10316566;28;20140;-57
2023/07/14 11:26:19;;;;;;;7.50;1.33;;;;;;;25.75;35.74;100057.63;10310566;28;20111;-57
2023/07/14 11:31:28;;;;;;;2.75;1.27;;;;;;;25.72;36.09;100068.97;10311957;28;20053;-59
2023/07/14 11:36:36;;;;;;;4.95;1.48;;;;;;;25.65;36.01;100069.03;10320279;28;20078;-59
2023/07/14 11:41:38;;;;;;;2.97;1.25;;;;;;;25.53;36.15;100066.25;10320112;28;20120;-58
2023/07/14 11:46:41;;;;;;;4.40;1.03;;;;;;;25.48;36.10;100062.56;10317865;28;20065;-59
2023/07/14 11:51:51;;;;;;;3.28;1.45;;;;;;;25.37;35.84;100051.34;10314576;28;20061;-60
2023/07/14 11:57:03;;;;;;;3.33;1.10;;;;;;;25.44;36.14;100028.63;10315613;28;20053;-59
2023/07/14 12:02:26;;;;;;;3.15;1.00;;;;;;;25.47;36.04;100006.38;10321167;28;20057;-58
2023/07/14 12:07:28;;;;;;;4.45;1.17;;;;;;;25.50;36.08;99986.84;10313096;28;20072;-58
2023/07/14 12:12:31;;;;;;;1.63;0.90;;;;;;;25.56;35.46;99983.22;10313416;28;20127;-57
2023/07/14 12:17:36;;;;;;;;;;;;;;;25.68;35.77;99970.47;10324253;28;20046;-59
2023/07/14 12:22:43;;;;;;;4.70;1.30;;;;;;;25.88;35.17;99964.75;10317471;28;20072;-58
2023/07/14 12:27:53;;;;;;;2.55;1.20;;;;;;;26.29;35.76;99965.03;10316504;28;20638;-58
2023/07/14 12:33:12;;;;;;;4.25;1.63;;;;;;;26.58;34.37;99946.06;10322471;28;20081;-57
2023/07/14 12:38:16;;;;;;;3.60;1.73;;;;;;;26.74;35.08;99923.56;10318250;28;20635;-58
2023/07/14 12:43:43;;;;;;;2.50;0.75;;;;;;;26.97;34.11;99898.09;10318749;28;20224;-59
2023/07/14 12:48:45;;;;;;;2.42;0.95;;;;;;;27.13;33.95;99877.41;10320178;28;20148;-60
2023/07/14 12:53:58;;;;;;;3.67;1.45;;;;;;;27.21;33.46;99886.31;10320600;28;20135;-58
2023/07/14 12:59:01;;;;;;;3.70;1.33;;;;;;;27.19;33.60;99907.53;10296444;28;20162;-59
2023/07/14 13:04:03;;;;;;;3.15;1.30;;;;;;;27.21;32.68;99908.16;10319285;28;20068;-57
2023/07/14 13:09:20;;;;;;;1.33;0.80;;;;;;;27.30;33.32;99903.97;10322788;28;20054;-58
2023/07/14 13:14:44;;;;;;;2.13;0.88;;;;;;;27.43;32.59;99895.50;10322230;28;20419;-59
2023/07/14 13:19:48;;;;;;;4.95;1.20;;;;;;;27.44;33.44;99888.13;10320230;28;20053;-60
2023/07/14 13:25:04;;;;;;;1.67;0.82;;;;;;;27.47;33.15;99883.03;10319335;28;20133;-59
2023/07/14 13:30:18;;;;;;;2.50;1.20;;;;;;;27.54;32.38;99866.47;10312870;28;20056;-59
2023/07/14 13:35:23;;;;;;;2.67;1.30;;;;;;;27.49;31.44;99847.25;10320708;28;20248;-59
2023/07/14 13:40:28;;;;;;;4.30;1.10;;;;;;;27.52;32.10;99833.91;10317887;28;20042;-58
2023/07/14 13:45:37;;;;;;;4.80;0.85;;;;;;;27.55;31.99;99818.94;10322647;28;20069;-59
2023/07/14 13:50:38;;;;;;;2.97;0.82;;;;;;;27.64;31.48;99811.16;10322115;28;20058;-57
2023/07/14 13:55:40;;;;;;;2.90;0.88;;;;;;;27.53;31.04;99780.06;10319553;28;20119;-59
2023/07/14 14:00:44;;;;;;;2.93;0.97;;;;;;;27.57;30.09;99794.91;10318168;28;20053;-58
2023/07/14 14:05:48;;;;;;;1.52;0.95;;;;;;;27.55;31.13;99785.28;10321733;28;20447;-60
2023/07/14 14:10:51;;;;;;;3.25;1.17;;;;;;;27.57;29.91;99780.44;10322786;28;20054;-58
2023/07/14 14:15:52;;;;;;;;;;;;;;;27.57;29.46;99796.81;10320653;28;20080;-59
2023/07/14 14:20:55;;;;;;;2.63;1.10;;;;;;;27.52;29.85;99776.53;10318212;28;19987;-59
2023/07/14 14:25:57;;;;;;;1.63;0.85;;;;;;;27.51;29.78;99758.44;10320303;28;20330;-58
2023/07/14 14:31:00;;;;;;;7.03;1.73;;;;;;;27.55;30.04;99766.16;10315605;28;20046;-57
2023/07/14 14:36:02;;;;;;;4.25;1.40;;;;;;;27.48;30.64;99758.94;10318056;28;20057;-58
2023/07/14 14:41:14;;;;;;;2.57;0.87;;;;;;;27.43;30.99;99734.28;10314155;28;20053;-57
2023/07/14 14:46:16;;;;;;;1.95;1.10;;;;;;;27.53;30.42;99733.59;10313864;28;20058;-59
2023/07/14 14:51:18;;;;;;;4.37;1.10;;;;;;;27.56;30.77;99729.56;10319481;28;20927;-59
2023/07/14 14:56:29;;;;;;;1.90;1.42;;;;;;;27.54;30.24;99731.72;10317846;28;20160;-58
2023/07/14 15:01:34;;;;;;;2.30;1.20;;;;;;;27.50;30.57;99718.56;10317638;28;20065;-57
2023/07/14 15:06:36;;;;;;;2.38;1.35;;;;;;;27.46;30.82;99711.91;10317472;28;20065;-57
2023/07/14 15:11:38;;;;;;;;;;;;;;;27.55;30.66;99725.16;10315460;28;20071;-58
2023/07/14 15:16:40;;;;;;;4.10;1.90;;;;;;;27.51;30.84;99719.38;10317001;28;20049;-58
2023/07/14 15:21:42;;;;;;;3.35;1.20;;;;;;;27.45;30.69;99696.59;10316214;28;20276;-58
2023/07/14 15:26:45;;;;;;;1.70;1.05;;;;;;;27.55;31.07;99708.75;10313050;28;20050;-58
2023/07/14 15:31:48;;;;;;;4.45;1.40;;;;;;;27.56;30.89;99683.09;10310684;28;20057;-58
2023/07/14 15:36:49;;;;;;;4.80;1.45;;;;;;;27.59;31.05;99682.59;10322750;28;20134;-58
2023/07/14 15:41:58;;;;;;;2.67;1.63;;;;;;;27.61;30.21;99655.81;10322915;28;20128;-58
2023/07/14 15:47:01;;;;;;;2.45;1.40;;;;;;;27.57;30.60;99657.44;10313474;28;20137;-58
2023/07/14 15:52:04;;;;;;;2.50;1.10;;;;;;;27.68;31.21;99646.41;10319548;28;20049;-57
2023/07/14 15:57:12;;;;;;;2.45;1.40;;;;;;;27.64;30.47;99641.69;10324660;28;20220;-58
2023/07/14 16:02:15;;;;;;;2.25;1.25;;;;;;;27.63;30.89;99640.03;10323806;28;20804;-57
2023/07/14 16:07:17;;;;;;;3.03;1.58;;;;;;;27.63;31.46;99629.09;10315918;28;20512;-57
2023/07/14 16:12:19;;;;;;;3.00;1.50;;;;;;;27.67;31.39;99624.78;10322914;28;20235;-57
2023/07/14 16:17:20;;;;;;;3.65;1.20;;;;;;;27.64;31.32;99603.41;10320981;28;20065;-58
2023/07/14 16:22:22;;;;;;;2.30;1.48;;;;;;;27.63;31.21;99604.47;10322903;28;20054;-58
2023/07/14 16:27:26;;;;;;;2.97;1.40;;;;;;;27.64;31.57;99589.75;10319889;28;20720;-59
2023/07/14 16:32:27;;;;;;;2.65;1.20;;;;;;;27.67;31.19;99586.50;10318266;28;20065;-58
2023/07/14 16:37:30;;;;;;;2.30;1.25;;;;;;;27.69;30.57;99587.06;10321246;28;20057;-57
2023/07/14 16:42:31;;;;;;;3.97;1.45;;;;;;;27.67;30.59;99581.03;10316869;28;20320;-58
2023/07/14 16:47:32;;;;;;;3.55;1.08;;;;;;;27.67;29.29;99583.78;10318232;28;20994;-57
2023/07/14 16:52:34;;;;;;;3.60;1.40;;;;;;;27.62;28.97;99584.53;10316902;28;20489;-58
2023/07/14 16:57:36;;;;;;;2.27;1.03;;;;;;;27.59;29.09;99568.59;10320079;28;20081;-57
2023/07/14 17:02:41;;;;;;;4.53;1.20;;;;;;;27.52;29.34;99557.88;10318983;28;20137;-59
2023/07/14 17:07:43;;;;;;;2.72;1.25;;;;;;;27.60;29.86;99559.34;10317786;28;20058;-57
2023/07/14 17:12:45;;;;;;;2.60;1.10;;;;;;;27.54;29.77;99537.66;10320843;28;20053;-58
2023/07/14 17:17:46;;;;;;;1.52;1.40;;;;;;;27.49;29.43;99536.50;10315400;28;20073;-56
2023/07/14 17:22:50;;;;;;;2.70;1.30;;;;;;;27.53;29.60;99542.28;10317882;28;20049;-56
2023/07/14 17:27:52;;;;;;;4.38;1.27;;;;;;;27.52;29.54;99530.53;10314884;28;22120;-60
2023/07/14 17:32:55;;;;;;;2.03;1.30;;;;;;;27.50;28.97;99526.41;10317210;28;20054;-56
2023/07/14 17:37:57;;;;;;;1.65;1.15;;;;;;;27.47;29.88;99522.28;10323195;28;20050;-57
2023/07/14 17:43:03;;;;;;;2.13;1.10;;;;;;;27.45;29.73;99518.97;10322101;28;20050;-57
2023/07/14 17:48:05;;;;;;;3.10;1.15;;;;;;;27.43;29.52;99532.06;10313523;28;20053;-57
2023/07/14 17:53:12;;;;;;;3.53;1.30;;;;;;;27.33;29.77;99505.41;10313922;28;20068;-58
2023/07/14 17:58:16;;;;;;;4.03;1.00;;;;;;;27.36;29.75;99509.56;10315156;28;20065;-58
2023/07/14 18:03:33;;;;;;;1.92;1.17;;;;;;;27.31;29.73;99506.72;10314375;28;20052;-56
2023/07/14 18:08:35;;;;;;;2.28;1.27;;;;;;;27.27;30.80;99511.03;10315118;28;20419;-57
2023/07/14 18:13:39;;;;;;;2.38;1.25;;;;;;;27.05;30.46;99484.50;10307495;28;20160;-56
2023/07/14 18:18:43;;;;;;;4.47;1.20;;;;;;;27.17;30.80;99501.63;10326299;28;20692;-56
2023/07/14 18:23:45;;;;;;;3.58;1.88;;;;;;;27.11;30.60;99497.19;10315824;28;20056;-56
2023/07/14 18:28:46;;;;;;;5.70;1.57;;;;;;;27.11;30.92;99510.84;10313928;28;20285;-57
2023/07/14 18:33:48;;;;;;;2.30;1.10;;;;;;;27.12;31.06;99503.47;10312749;28;20180;-57
2023/07/14 18:38:50;;;;;;;3.13;1.67;;;;;;;27.09;31.30;99510.25;10311548;28;20053;-57
2023/07/14 18:43:52;;;;;;;3.95;1.40;;;;;;;27.06;31.46;99513.47;10314526;28;20966;-57
2023/07/14 18:48:53;;;;;;;2.83;1.50;;;;;;;27.03;30.83;99516.69;10307724;28;20077;-56
2023/07/14 18:53:58;;;;;;;3.03;1.53;;;;;;;27.01;30.86;99513.41;10312129;28;20068;-58
2023/07/14 18:58:59;;;;;;;5.18;1.60;;;;;;;26.98;31.16;99511.19;10304600;28;20882;-58
2023/07/14 19:04:04;;;;;;;1.73;1.30;;;;;;;26.93;30.83;99516.53;10310250;28;20817;-58
2023/07/14 19:09:20;;;;;;;2.67;1.95;;;;;;;26.91;31.12;99513.25;10309610;28;20109;-57
2023/07/14 19:14:21;;;;;;;3.92;1.73;;;;;;;26.80;31.17;99510.34;10308225;28;20049;-57
2023/07/14 19:19:23;;;;;;;2.88;1.60;;;;;;;26.78;31.00;99520.69;10311673;28;20053;-57
2023/07/14 19:24:26;;;;;;;6.03;1.77;;;;;;;26.70;31.68;99515.66;10310812;28;20061;-57
2023/07/14 19:29:28;;;;;;;2.65;1.33;;;;;;;26.60;31.68;99510.81;10308211;28;20054;-57
2023/07/14 19:34:30;;;;;;;;;;;;;;;26.59;31.65;99517.34;10308727;28;20046;-57
2023/07/14 19:39:32;;;;;;;2.90;1.30;;;;;;;26.55;31.81;99516.19;10312921;28;19925;-57
2023/07/14 19:44:34;;;;;;;3.20;1.40;;;;;;;26.46;31.71;99501.28;10311386;28;20069;-57
2023/07/14 19:49:35;;;;;;;3.00;1.70;;;;;;;26.45;32.02;99516.84;10312687;28;20053;-57
2023/07/14 19:54:38;;;;;;;2.38;1.60;;;;;;;26.39;31.74;99512.38;10302547;28;20052;-57
2023/07/14 19:59:41;;;;;;;3.15;1.65;;;;;;;26.31;31.76;99504.59;10305213;28;20061;-57
2023/07/14 20:04:42;;;;;;;2.45;1.70;;;;;;;26.28;32.52;99505.06;10308233;28;20061;-57
2023/07/14 20:09:44;;;;;;;5.43;2.53;;;;;;;26.16;32.05;99498.84;10307375;28;20125;-57
2023/07/14 20:14:46;;;;;;;4.93;2.10;;;;;;;26.18;31.97;99504.88;10309804;28;20046;-57
2023/07/14 20:19:47;;;;;;;2.63;1.55;;;;;;;26.12;32.20;99512.13;10310967;28;20492;-58
2023/07/14 20:24:49;;;;;;;3.95;2.13;;;;;;;26.10;32.49;99525.19;10317687;28;20082;-57
2023/07/14 20:29:51;;;;;;;;;;;;;;;26.08;32.61;99528.16;10318429;28;20140;-57
2023/07/14 20:34:58;;;;;;;5.72;1.63;;;;;;;26.08;33.11;99514.53;10314301;28;20060;-57
2023/07/14 20:40:00;;;;;;;3.45;1.83;;;;;;;25.98;32.98;99481.59;10316611;28;20049;-58
2023/07/14 20:45:10;;;;;;;5.95;2.30;;;;;;;26.03;32.77;99509.00;10315166;28;20461;-58
2023/07/14 20:50:13;;;;;;;2.85;1.70;;;;;;;25.92;33.13;99501.66;10315183;28;20180;-56
2023/07/14 20:55:28;;;;;;;;;;;;;;;25.95;32.80;99517.50;10310962;28;20519;-56
2023/07/14 21:00:31;;;;;;;6.55;2.25;;;;;;;25.88;32.92;99506.78;10316239;28;19922;-57
2023/07/14 21:05:32;;;;;;;4.50;2.42;;;;;;;25.82;32.92;99512.34;10316826;28;20056;-56
2023/07/14 21:10:34;;;;;;;2.30;1.42;;;;;;;25.81;33.17;99510.72;10319144;28;20097;-56
2023/07/14 21:15:35;;;;;;;1.67;1.17;;;;;;;25.79;33.24;99501.94;10317227;28;20053;-57
2023/07/14 21:20:38;;;;;;;4.25;1.63;;;;;;;25.78;33.30;99501.09;10318845;28;20057;-48
2023/07/14 21:25:41;;;;;;;4.18;1.75;;;;;;;25.77;33.77;99494.81;10324949;28;20057;-48
2023/07/14 21:30:47;;;;;;;2.65;2.05;;;;;;;25.75;35.33;99496.97;10332784;28;20137;-48
2023/07/14 21:35:49;;;;;;;3.97;2.53;;;;;;;25.56;35.30;99484.59;10342130;28;20053;-47
2023/07/14 21:40:53;;;;;;;3.38;2.85;;;;;;;25.65;35.88;99510.38;10327725;28;20791;-48
2023/07/14 21:45:54;;;;;;;4.47;2.60;;;;;;;25.60;35.91;99507.56;10329214;28;20049;-47
2023/07/14 21:51:03;;;;;;;5.18;3.13;;;;;;;25.54;36.24;99497.63;10327942;28;20050;-48
2023/07/14 21:56:04;;;;;;;5.68;2.70;;;;;;;25.49;36.00;99503.81;10328350;28;20052;-48
2023/07/14 22:01:32;;;;;;;4.55;2.45;;;;;;;25.31;34.95;99490.31;10327337;28;20131;-48
2023/07/14 22:06:34;;;;;;;2.08;1.85;;;;;;;25.34;35.33;99500.72;10317733;28;20042;-48
2023/07/14 22:11:38;;;;;;;3.42;2.15;;;;;;;25.30;35.22;99500.38;10314516;28;20089;-48
2023/07/14 22:16:40;;;;;;;3.78;2.20;;;;;;;25.25;35.30;99505.66;10324361;28;20159;-48
2023/07/14 22:21:43;;;;;;;5.68;2.83;;;;;;;25.22;36.29;99500.69;10319211;28;20042;-48
2023/07/14 22:26:45;;;;;;;4.38;2.60;;;;;;;25.20;36.40;99500.13;10321832;28;20077;-49
2023/07/14 22:31:47;;;;;;;4.25;2.83;;;;;;;25.17;37.42;99495.16;10323140;28;20058;-48
2023/07/14 22:36:48;;;;;;;4.68;3.08;;;;;;;25.12;37.10;99492.31;10320788;28;20745;-48
2023/07/14 22:41:50;;;;;;;4.47;3.05;;;;;;;25.05;37.32;99489.72;10321214;28;20049;-49
2023/07/14 22:46:52;;;;;;;3.33;2.50;;;;;;;24.96;37.80;99489.25;10321358;28;20061;-49
2023/07/14 22:51:53;;;;;;;3.03;2.40;;;;;;;24.94;38.30;99491.38;10311001;28;20053;-48
2023/07/14 22:56:55;;;;;;;3.37;2.63;;;;;;;24.89;38.10;99493.97;10312789;28;20077;-49
2023/07/14 23:01:57;;;;;;;3.78;2.60;;;;;;;24.83;37.97;99498.47;10318371;28;21060;-48
2023/07/14 23:06:59;;;;;;;5.05;2.80;;;;;;;24.80;38.31;99487.22;10316126;28;20050;-48
2023/07/14 23:12:00;;;;;;;3.75;2.55;;;;;;;24.76;38.30;99486.88;10320439;28;20046;-48
2023/07/14 23:17:02;;;;;;;2.50;2.30;;;;;;;24.71;38.41;99484.00;10316841;28;20781;-48
2023/07/14 23:22:03;;;;;;;4.57;2.63;;;;;;;24.64;38.64;99480.59;10317970;28;20061;-48
2023/07/14 23:27:08;;;;;;;5.07;2.90;;;;;;;24.60;38.19;99484.84;10315169;28;20824;-48
2023/07/14 23:32:09;;;;;;;3.03;2.80;;;;;;;24.55;37.93;99480.06;10311529;28;20755;-48